CGT weather

Chinguetti Airport
Chinguetti, Adrar Region, Mauritania

Public forecast

Using degrees Celsius for public forecast. Weather courtesy of forecast.io.

Closest aviation weather report (METAR) to Chinguetti Airport

Report is more than 2 hours old.

Closest report is Atar International Airport, 36.3 nm (67.2 km) W. Retrieved 2019/11/22 09:00 UTC (3 hours ago):

GQPA 220900Z 35006KT 330V030 CAVOK 21/05 Q1018

Closest aviation forecast (TAF) to Chinguetti Airport

Closest forecast is Nouakchott–Oumtounsy International Airport, 241.4 nm (447.1 km) WSW. Retrieved 2019/11/22 06:00 UTC (6 hours ago):

TAF GQNO 220520Z 2206/2312 04010KT 8000 NSC BECMG 2217/2220 34010KT BECMG 2304/2308 05010KT